Aviation Digital Data Service (ADDS)

Output produced by METARs form (2030 UTC 28 September 2016)
found at http://www.aviationweather.gov/adds/metars/
 
KFIG 281954Z AUTO 12009G20KT 10SM FEW050 BKN070 21/08 A3004 RMK AO2 SLP173 T02110083 TSNO
KFIG 281854Z AUTO 11007G15KT 060V150 10SM CLR 22/08 A3003 RMK AO2 SLP168 T02220083
KFIG 281754Z AUTO 11008G18KT 10SM CLR 22/08 A3002 RMK AO2 SLP165 T02170083 10222 20061 58008
KFIG 281654Z AUTO 12009G19KT 080V150 10SM OVC060 22/09 A3004 RMK AO2 SLP172 T02170089
KFIG 281554Z AUTO VRB06G19KT 10SM OVC065 19/10 A3004 RMK AO2 SLP173 T01890100
KFIG 281454Z AUTO 09005KT 10SM SCT055 BKN075 17/12 A3005 RMK AO2 SLP175 T01670117 51007
KFIG 281354Z AUTO 03007KT 10SM FEW065 13/09 A3004 RMK AO2 SLP176 T01280089
KFIG 281254Z AUTO 04004KT 10SM BKN042 09/08 A3003 RMK AO2 SLP173 T00940078
KFIG 281154Z AUTO 03006KT 10SM SCT043 BKN055 BKN080 06/06 A3003 RMK AO2 SLP172 T00560056 10067 20044 53007
KFIG 281054Z AUTO 02004KT 10SM BKN070 06/05 A3002 RMK AO2 SLP166 T00560050
KFIG 280954Z AUTO 02004KT 10SM FEW070 04/04 A3000 RMK AO2 SLP161 T00440044
KFIG 280854Z AUTO 36005KT 10SM CLR 05/05 A3000 RMK AO2 SLP161 T00500050 53005
KFIG 280754Z AUTO 01005KT 10SM CLR 05/05 A2999 RMK AO2 SLP156 T00500050
KFIG 280654Z AUTO 36003KT 10SM CLR 06/05 A2998 RMK AO2 SLP152 T00560050
KFIG 280554Z AUTO 36005KT 10SM CLR 06/06 A2999 RMK AO2 SLP154 T00560056 10122 20056 51005
KFIG 280454Z AUTO 06003KT 10SM CLR 06/06 A2998 RMK AO2 SLP153 T00560056 402170056
KFIG 280354Z AUTO 36005KT 10SM CLR 07/06 A2998 RMK AO2 SLP152 T00670061
KFIG 280254Z AUTO 01004KT 10SM CLR 08/06 A2997 RMK AO2 SLP150 T00780061 51016
KFIG 280154Z AUTO 35006KT 10SM CLR 09/07 A2996 RMK AO2 SLP146 T00890072
KFIG 280054Z AUTO 36003KT 10SM CLR 10/07 A2995 RMK AO2 SLP144 T01000072
KFIG 272354Z AUTO 34006KT 10SM CLR 12/08 A2992 RMK AO2 SLP134 T01220078 10217 20117 53012
KFIG 272254Z AUTO 27004KT 10SM CLR 18/04 A2990 RMK AO2 SLP125 T01780039
KFIG 272154Z AUTO VRB05KT 10SM CLR 20/04 A2989 RMK AO2 SLP120 T02000044
KFIG 272054Z AUTO 22011KT 10SM CLR 21/04 A2989 RMK AO2 SLP116 T02060039 56009
KFIG 271954Z AUTO 25012G17KT 10SM CLR 21/04 A2989 RMK AO2 SLP115 T02110044
KFIG 271854Z AUTO 24010KT 10SM CLR 22/06 A2989 RMK AO2 SLP118 T02170056
KFIG 271754Z AUTO 24013G21KT 10SM CLR 21/04 A2991 RMK AO2 SLP125 T02060039 10211 20106 58015
KFIG 271654Z AUTO 23011G21KT 200V260 10SM CLR 20/04 A2993 RMK AO2 SLP132 T02000044
KFIG 271554Z AUTO 26013G18KT 10SM CLR 19/07 A2995 RMK AO2 SLP137 T01940067
KFIG 271454Z AUTO 23008G15KT 10SM CLR 17/11 A2996 RMK AO2 SLP142 T01670111 58002
KFIG 271354Z AUTO 20007KT 10SM CLR 14/12 A2997 RMK AO2 SLP145 T01440122
KFIG 271317Z AUTO 21006KT 8SM FEW002 12/12 A2997 RMK AO2 T01170117
KFIG 271308Z AUTO 19006KT 5SM BR BKN002 12/12 A2997 RMK AO2 T01170117
KFIG 271300Z AUTO 19004KT 2 1/2SM BR BKN002 11/11 A2997 RMK AO2 T01110111
KFIG 271254Z AUTO VRB04KT 1/2SM FG VV002 11/11 A2997 RMK AO2 SLP147 T01110111
KFIG 271206Z AUTO 20006KT 1/4SM FG VV002 11/11 A2997 RMK AO2 T01110111
KFIG 271154Z AUTO 19003KT 3/4SM BR VV002 11/11 A2997 RMK AO2 SLP146 70008 T01110111 10133 20106 55000
KFIG 271142Z AUTO 21004KT 1 1/2SM BR OVC003 11/11 A2997 RMK AO2 T01060106
KFIG 271126Z AUTO 21004KT 2 1/2SM BR OVC003 11/11 A2997 RMK AO2 T01110111
KFIG 271119Z AUTO 22005KT 3SM BR OVC002 11/11 A2996 RMK AO2 CIG 002V006 T01060106
KFIG 271054Z AUTO 21005KT 4SM BR OVC003 11/11 A2996 RMK AO2 SLP145 T01110111
KFIG 271025Z AUTO 22005KT 5SM BR BKN004 11/11 A2997 RMK AO2 T01060106
KFIG 271001Z AUTO 22006KT 5SM BR SCT003 11/11 A2997 RMK AO2 T01060106
KFIG 270954Z AUTO 23007KT 5SM BR BKN004 11/11 A2997 RMK AO2 SLP146 T01110111
KFIG 270908Z AUTO 22006KT 6SM BR SCT003 11/11 A2997 RMK AO2 T01110111
KFIG 270858Z AUTO 22005KT 2SM BR BKN003 11/11 A2997 RMK AO2 VIS 1V4 T01110111
KFIG 270854Z AUTO 21005KT 1SM BR VV002 11/11 A2997 RMK AO2 SLP147 T01110111 56004